Time;durP1;ratioP1;P1;durP2;ratioP2;P2;SDS_P1;SDS_P2;PMS_P1;PMS_P2;Temp;Humidity;BMP_temperature;BMP_pressure;BME280_temperature;BME280_humidity;BME280_pressure;Samples;Min_cycle;Max_cycle;Signal;HPM_P1;HPM_P2
2022/02/09 00:01:55;;;;;;;3.38;1.40;;;;;;;;;;5031481;28;20032;-81
2022/02/09 00:04:31;;;;;;;3.45;1.30;;;;;;;;;;5052437;28;20025;-82
2022/02/09 00:09:23;;;;;;;5.20;1.70;;;;;;;;;;5048661;28;20048;-79
2022/02/09 00:12:02;;;;;;;4.20;1.52;;;;;;;;;;5041275;28;20429;-80
2022/02/09 00:22:45;;;;;;;3.58;1.60;;;;;;;;;;5029566;28;20254;-81
2022/02/09 00:43:48;;;;;;;3.47;1.52;;;;;;;;;;4969800;29;20550;-81
2022/02/09 00:58:57;;;;;;;4.13;1.45;;;;;;;;;;4967997;29;20045;-80
2022/02/09 01:11:19;;;;;;;5.05;2.00;;;;;;;;;;4968116;29;20590;-81
2022/02/09 01:11:41;;;;;;;3.90;1.80;;;;;;;;;;5007019;28;20049;-82
2022/02/09 01:43:05;;;;;;;4.30;1.90;;;;;;;;;;5028762;28;20029;-80
2022/02/09 01:55:56;;;;;;;5.20;1.90;;;;;;;;;;4966814;29;20090;-81
2022/02/09 01:58:23;;;;;;;4.40;1.75;;;;;;;;;;4965835;29;20039;-81
2022/02/09 02:00:49;;;;;;;4.10;2.03;;;;;;;;;;4966101;29;20027;-81
2022/02/09 02:03:16;;;;;;;3.75;1.70;;;;;;;;;;4966735;28;20031;-81
2022/02/09 02:05:42;;;;;;;4.22;2.25;;;;;;;;;;4949854;29;20095;-82
2022/02/09 02:08:10;;;;;;;3.85;1.95;;;;;;;;;;4966129;29;20154;-80
2022/02/09 02:11:05;;;;;;;3.75;1.50;;;;;;;;;;4965307;29;20043;-79
2022/02/09 02:13:57;;;;;;;4.07;1.85;;;;;;;;;;4965137;28;20035;-81
2022/02/09 02:19:07;;;;;;;4.15;1.70;;;;;;;;;;4966419;29;20042;-83
2022/02/09 02:21:54;;;;;;;4.28;1.50;;;;;;;;;;4964838;29;20119;-81
2022/02/09 02:25:11;;;;;;;3.40;1.30;;;;;;;;;;5015044;28;20040;-82
2022/02/09 02:27:39;;;;;;;4.47;1.50;;;;;;;;;;5036949;28;20049;-81
2022/02/09 02:35:37;;;;;;;4.38;1.50;;;;;;;;;;5049070;28;20040;-80
2022/02/09 02:44:18;;;;;;;5.97;1.67;;;;;;;;;;5052083;28;20091;-80
2022/02/09 03:13:28;;;;;;;4.80;1.63;;;;;;;;;;4968997;29;20046;-80
2022/02/09 03:16:06;;;;;;;4.13;1.67;;;;;;;;;;4967821;29;20447;-81
2022/02/09 03:21:18;;;;;;;3.90;1.50;;;;;;;;;;4969493;29;20027;-81
2022/02/09 03:23:50;;;;;;;3.50;1.33;;;;;;;;;;4953924;29;20034;-81
2022/02/09 03:42:30;;;;;;;3.65;1.50;;;;;;;;;;5048969;28;20121;-81
2022/02/09 03:47:59;;;;;;;3.72;1.60;;;;;;;;;;5051163;28;20033;-81
2022/02/09 03:58:10;;;;;;;4.72;1.65;;;;;;;;;;5033555;28;20346;-81
2022/02/09 04:00:41;;;;;;;3.53;1.55;;;;;;;;;;5067049;28;20017;-81
2022/02/09 04:03:12;;;;;;;5.03;1.88;;;;;;;;;;5030472;28;20064;-82
2022/02/09 04:05:39;;;;;;;3.17;1.48;;;;;;;;;;5049526;28;20021;-81
2022/02/09 04:08:06;;;;;;;4.22;1.42;;;;;;;;;;5050185;28;20104;-82
2022/02/09 04:10:40;;;;;;;4.93;1.85;;;;;;;;;;5053110;28;20025;-81
2022/02/09 04:15:58;;;;;;;5.75;1.50;;;;;;;;;;5047142;28;20480;-81
2022/02/09 04:40:29;;;;;;;4.63;1.58;;;;;;;;;;5056016;28;20056;-81
2022/02/09 04:43:22;;;;;;;3.63;1.48;;;;;;;;;;5053599;28;20036;-82
2022/02/09 04:51:25;;;;;;;3.83;1.70;;;;;;;;;;5005271;28;20039;-82
2022/02/09 04:54:24;;;;;;;3.87;1.50;;;;;;;;;;4989833;28;20023;-82
2022/02/09 04:56:59;;;;;;;4.47;1.52;;;;;;;;;;4988503;28;20344;-82
2022/02/09 05:28:42;;;;;;;4.88;1.77;;;;;;;;;;5042364;28;20025;-82
2022/02/09 05:31:09;;;;;;;4.00;1.48;;;;;;;;;;5064655;28;20032;-80
2022/02/09 05:33:35;;;;;;;5.13;1.55;;;;;;;;;;5065033;28;20024;-82
2022/02/09 05:36:02;;;;;;;4.28;1.60;;;;;;;;;;5049263;28;20091;-82
2022/02/09 05:38:28;;;;;;;4.25;1.88;;;;;;;;;;5030173;28;20444;-82
2022/02/09 05:40:54;;;;;;;3.33;1.50;;;;;;;;;;5064589;28;20021;-81
2022/02/09 05:43:23;;;;;;;4.15;1.85;;;;;;;;;;5065393;28;20100;-81
2022/02/09 05:51:44;;;;;;;3.75;1.48;;;;;;;;;;5043974;28;20460;-81
2022/02/09 05:56:48;;;;;;;5.40;1.60;;;;;;;;;;5059717;28;20033;-80
2022/02/09 05:59:32;;;;;;;4.05;1.60;;;;;;;;;;5061465;28;20021;-80
2022/02/09 06:01:58;;;;;;;3.55;1.67;;;;;;;;;;5049803;28;20037;-81
2022/02/09 06:04:24;;;;;;;5.43;1.75;;;;;;;;;;5043221;28;20022;-81
2022/02/09 06:06:51;;;;;;;4.70;1.60;;;;;;;;;;5025266;28;20017;-81
2022/02/09 06:09:20;;;;;;;6.30;1.90;;;;;;;;;;5044888;28;20060;-82
2022/02/09 06:11:52;;;;;;;3.15;1.40;;;;;;;;;;5026989;28;20366;-81
2022/02/09 06:21:55;;;;;;;4.32;1.63;;;;;;;;;;5042655;28;20409;-83
2022/02/09 06:24:21;;;;;;;4.80;1.80;;;;;;;;;;5043486;28;20041;-80
2022/02/09 06:26:47;;;;;;;5.18;1.70;;;;;;;;;;5025414;28;20030;-81
2022/02/09 06:29:14;;;;;;;8.07;2.67;;;;;;;;;;5016458;28;20022;-81
2022/02/09 06:31:42;;;;;;;3.63;1.52;;;;;;;;;;5015727;28;20125;-81
2022/02/09 06:34:11;;;;;;;4.82;1.60;;;;;;;;;;5026663;28;20032;-81
2022/02/09 06:36:41;;;;;;;5.00;1.55;;;;;;;;;;5044915;28;20021;-83
2022/02/09 06:39:10;;;;;;;3.83;1.70;;;;;;;;;;5044107;28;20507;-82
2022/02/09 06:41:37;;;;;;;3.92;1.40;;;;;;;;;;5044283;28;20025;-81
2022/02/09 06:44:04;;;;;;;5.28;2.00;;;;;;;;;;5026403;28;20041;-82
2022/02/09 06:46:34;;;;;;;4.13;1.60;;;;;;;;;;5034326;28;20055;-82
2022/02/09 06:49:07;;;;;;;3.67;1.67;;;;;;;;;;5064089;28;20017;-81
2022/02/09 06:51:36;;;;;;;4.45;1.50;;;;;;;;;;5057265;28;20022;-82
2022/02/09 06:54:08;;;;;;;4.18;1.52;;;;;;;;;;5028577;28;20021;-81
2022/02/09 07:01:39;;;;;;;3.08;1.50;;;;;;;;;;5049143;28;20028;-82
2022/02/09 07:04:05;;;;;;;3.47;1.70;;;;;;;;;;5027733;28;20342;-83
2022/02/09 07:06:32;;;;;;;3.50;1.50;;;;;;;;;;5028919;28;20068;-82
2022/02/09 07:08:58;;;;;;;3.30;1.45;;;;;;;;;;5027673;28;20025;-82
2022/02/09 07:11:26;;;;;;;3.60;1.83;;;;;;;;;;5026235;28;20025;-83
2022/02/09 07:13:52;;;;;;;5.32;1.60;;;;;;;;;;5045286;28;20021;-83
2022/02/09 07:16:20;;;;;;;3.65;1.30;;;;;;;;;;5031466;28;20022;-82
2022/02/09 07:18:48;;;;;;;6.00;1.65;;;;;;;;;;5030529;28;20024;-82
2022/02/09 07:21:20;;;;;;;5.13;1.80;;;;;;;;;;5048153;28;20120;-83
2022/02/09 07:23:50;;;;;;;3.42;1.50;;;;;;;;;;5050717;28;20021;-82
2022/02/09 07:29:00;;;;;;;4.28;1.77;;;;;;;;;;5048470;28;20044;-82
2022/02/09 07:31:27;;;;;;;3.67;1.42;;;;;;;;;;5029304;28;20049;-83
2022/02/09 07:33:56;;;;;;;4.20;2.10;;;;;;;;;;5027885;28;20085;-82
2022/02/09 07:36:22;;;;;;;4.47;1.90;;;;;;;;;;5029093;28;20022;-82
2022/02/09 07:38:48;;;;;;;3.97;1.95;;;;;;;;;;5053580;28;20022;-83
2022/02/09 07:41:14;;;;;;;3.75;1.70;;;;;;;;;;5047366;28;20048;-82
2022/02/09 07:43:58;;;;;;;3.63;1.98;;;;;;;;;;5046739;28;20179;-82
2022/02/09 07:49:04;;;;;;;4.82;1.65;;;;;;;;;;5046724;28;20030;-82
2022/02/09 07:53:59;;;;;;;3.63;1.65;;;;;;;;;;5059846;28;20407;-82
2022/02/09 07:56:30;;;;;;;5.20;1.80;;;;;;;;;;5066417;28;20021;-82
2022/02/09 07:58:57;;;;;;;4.18;1.70;;;;;;;;;;5062734;28;20025;-82
2022/02/09 08:01:23;;;;;;;3.58;1.60;;;;;;;;;;5049693;28;20029;-81
2022/02/09 08:03:50;;;;;;;4.40;1.67;;;;;;;;;;5048738;28;20052;-82
2022/02/09 08:06:17;;;;;;;4.07;1.65;;;;;;;;;;5028556;28;20032;-81
2022/02/09 08:08:45;;;;;;;3.53;1.85;;;;;;;;;;5028267;28;20021;-82
2022/02/09 08:11:23;;;;;;;3.67;1.70;;;;;;;;;;5045758;28;20033;-81
2022/02/09 08:30:04;;;;;;;4.50;1.90;;;;;;;;;;5065986;28;20112;-84
2022/02/09 08:34:57;;;;;;;3.22;1.50;;;;;;;;;;5065527;28;20067;-84
2022/02/09 08:37:24;;;;;;;3.30;1.42;;;;;;;;;;5046345;28;20040;-84
2022/02/09 08:39:52;;;;;;;2.88;1.45;;;;;;;;;;5028939;28;20033;-84
2022/02/09 08:42:18;;;;;;;3.78;1.50;;;;;;;;;;5028662;28;20033;-84
2022/02/09 08:44:44;;;;;;;3.40;1.40;;;;;;;;;;5026686;28;20057;-84
2022/02/09 08:47:12;;;;;;;5.10;2.10;;;;;;;;;;5027589;28;20032;-82
2022/02/09 08:49:38;;;;;;;3.67;1.60;;;;;;;;;;5027968;28;20061;-82
2022/02/09 08:52:07;;;;;;;4.20;1.98;;;;;;;;;;5028453;28;20036;-83
2022/02/09 08:54:34;;;;;;;2.88;1.30;;;;;;;;;;5044740;28;20500;-83
2022/02/09 08:57:08;;;;;;;3.45;1.50;;;;;;;;;;5045661;28;20021;-84
2022/02/09 08:59:34;;;;;;;3.22;1.40;;;;;;;;;;5028758;28;20091;-83
2022/02/09 09:02:04;;;;;;;3.75;1.60;;;;;;;;;;5028154;28;20028;-83
2022/02/09 09:04:54;;;;;;;3.88;1.80;;;;;;;;;;5029388;28;20047;-84
2022/02/09 09:07:30;;;;;;;4.55;1.85;;;;;;;;;;5050415;28;20063;-84
2022/02/09 09:16:59;;;;;;;3.80;1.80;;;;;;;;;;5046112;28;20110;-83
2022/02/09 10:02:13;;;;;;;4.60;2.00;;;;;;;;;;5044269;28;20089;-83
2022/02/09 10:35:06;;;;;;;3.80;2.00;;;;;;;;;;5053281;28;20060;-81
2022/02/09 10:37:32;;;;;;;5.00;2.00;;;;;;;;;;5024247;28;20433;-81
2022/02/09 10:40:03;;;;;;;3.95;1.77;;;;;;;;;;5025367;28;20045;-82
2022/02/09 10:42:48;;;;;;;5.38;2.75;;;;;;;;;;5043786;28;20018;-83
2022/02/09 10:45:36;;;;;;;4.43;1.90;;;;;;;;;;5006205;28;20048;-82
2022/02/09 10:48:04;;;;;;;5.65;2.30;;;;;;;;;;5035620;28;20489;-82
2022/02/09 10:50:33;;;;;;;5.65;1.88;;;;;;;;;;5030335;28;20033;-83
2022/02/09 10:53:02;;;;;;;3.88;1.77;;;;;;;;;;5026291;28;20026;-82
2022/02/09 10:55:47;;;;;;;4.53;1.90;;;;;;;;;;5044820;28;20037;-84
2022/02/09 10:58:13;;;;;;;4.47;1.92;;;;;;;;;;5046800;28;20759;-83
2022/02/09 11:00:43;;;;;;;4.00;1.88;;;;;;;;;;5032116;28;20026;-82
2022/02/09 11:03:16;;;;;;;4.63;2.15;;;;;;;;;;5041281;28;20033;-83
2022/02/09 11:05:52;;;;;;;4.13;1.90;;;;;;;;;;5011579;28;20086;-82
2022/02/09 11:08:19;;;;;;;5.80;2.22;;;;;;;;;;5013048;28;20056;-82
2022/02/09 11:10:46;;;;;;;5.15;1.80;;;;;;;;;;5028626;28;20030;-80
2022/02/09 11:13:13;;;;;;;8.18;2.40;;;;;;;;;;5011107;28;20033;-81
2022/02/09 11:15:40;;;;;;;5.47;2.25;;;;;;;;;;5009712;28;20025;-81
2022/02/09 11:18:08;;;;;;;5.47;2.13;;;;;;;;;;5024862;28;20508;-81
2022/02/09 11:20:55;;;;;;;5.47;2.10;;;;;;;;;;5024897;28;20025;-81
2022/02/09 11:23:46;;;;;;;5.45;2.50;;;;;;;;;;5004370;28;20028;-81
2022/02/09 11:26:34;;;;;;;4.75;2.00;;;;;;;;;;4994965;28;20041;-81
2022/02/09 11:29:33;;;;;;;5.78;3.25;;;;;;;;;;5025448;28;20046;-81
2022/02/09 11:32:11;;;;;;;5.72;2.40;;;;;;;;;;5022710;28;20049;-80
2022/02/09 11:34:59;;;;;;;5.80;2.40;;;;;;;;;;5005782;28;20029;-81
2022/02/09 11:37:51;;;;;;;6.03;2.60;;;;;;;;;;5025018;28;20053;-81
2022/02/09 11:40:41;;;;;;;3.33;1.88;;;;;;;;;;5007234;28;20079;-81
2022/02/09 11:43:31;;;;;;;3.95;1.90;;;;;;;;;;5010873;28;20045;-82
2022/02/09 11:46:18;;;;;;;4.28;1.88;;;;;;;;;;5061375;28;20030;-82
2022/02/09 12:08:45;;;;;;;4.68;1.90;;;;;;;;;;5041539;28;20064;-82
2022/02/09 12:10:16;;;;;;;4.20;1.83;;;;;;;;;;5025207;28;20040;-83
2022/02/09 12:12:44;;;;;;;4.13;1.70;;;;;;;;;;5006689;28;20026;-82
2022/02/09 12:15:28;;;;;;;3.92;1.80;;;;;;;;;;5026279;28;20024;-82
2022/02/09 12:18:35;;;;;;;4.70;1.95;;;;;;;;;;5035782;28;20022;-81
2022/02/09 12:21:14;;;;;;;4.20;2.00;;;;;;;;;;5006943;28;20398;-82
2022/02/09 12:23:44;;;;;;;3.80;1.73;;;;;;;;;;5007327;28;20064;-82
2022/02/09 12:26:11;;;;;;;4.30;1.90;;;;;;;;;;5025672;28;20076;-83
2022/02/09 12:28:39;;;;;;;4.65;2.00;;;;;;;;;;5017553;28;20042;-82
2022/02/09 12:31:10;;;;;;;5.07;2.05;;;;;;;;;;5031249;28;20058;-81
2022/02/09 12:33:51;;;;;;;5.72;2.10;;;;;;;;;;5006795;28;20125;-84
2022/02/09 12:36:21;;;;;;;4.55;2.30;;;;;;;;;;5024826;28;20513;-83
2022/02/09 12:38:48;;;;;;;5.10;1.92;;;;;;;;;;5023758;28;20041;-82
2022/02/09 12:41:22;;;;;;;5.22;1.80;;;;;;;;;;5007912;28;20069;-83
2022/02/09 12:44:07;;;;;;;4.95;2.13;;;;;;;;;;5007470;28;20045;-83
2022/02/09 12:46:37;;;;;;;4.28;1.80;;;;;;;;;;5025210;28;20024;-82
2022/02/09 12:49:11;;;;;;;4.40;1.90;;;;;;;;;;5025656;28;20061;-83
2022/02/09 12:51:38;;;;;;;4.22;1.90;;;;;;;;;;5025551;28;20381;-83
2022/02/09 12:54:04;;;;;;;5.38;1.83;;;;;;;;;;5009082;28;20022;-82
2022/02/09 12:56:35;;;;;;;5.93;1.90;;;;;;;;;;5006697;28;20510;-82
2022/02/09 12:59:05;;;;;;;4.45;1.67;;;;;;;;;;5007160;28;20231;-83
2022/02/09 13:01:43;;;;;;;3.95;1.60;;;;;;;;;;5008449;28;20033;-84
2022/02/09 13:04:11;;;;;;;3.75;1.65;;;;;;;;;;5007541;28;20030;-82
2022/02/09 13:06:37;;;;;;;4.32;1.80;;;;;;;;;;5025267;28;20049;-82
2022/02/09 13:09:03;;;;;;;4.25;1.60;;;;;;;;;;5008227;28;20029;-82
2022/02/09 13:11:32;;;;;;;4.72;1.90;;;;;;;;;;5010099;28;20034;-82
2022/02/09 13:14:08;;;;;;;5.20;1.65;;;;;;;;;;5010079;28;20034;-82
2022/02/09 13:22:38;;;;;;;8.18;4.18;;;;;;;;;;5024064;28;20079;-82
2022/02/09 14:53:45;;;;;;;5.28;2.40;;;;;;;;;;5068035;28;20408;-81
2022/02/09 14:56:39;;;;;;;7.03;3.22;;;;;;;;;;5065751;28;20017;-82
2022/02/09 14:59:08;;;;;;;6.57;2.90;;;;;;;;;;5057522;28;20036;-81
2022/02/09 15:01:53;;;;;;;5.93;2.35;;;;;;;;;;5046477;28;20036;-81
2022/02/09 15:09:35;;;;;;;4.43;1.75;;;;;;;;;;5045581;28;20056;-81
2022/02/09 15:22:51;;;;;;;3.65;1.70;;;;;;;;;;5047924;28;20029;-81
2022/02/09 15:25:20;;;;;;;6.07;2.75;;;;;;;;;;5052585;28;20117;-80
2022/02/09 15:27:50;;;;;;;4.63;1.98;;;;;;;;;;5028456;28;20034;-81
2022/02/09 15:30:16;;;;;;;6.95;2.20;;;;;;;;;;5045410;28;20041;-81
2022/02/09 15:32:46;;;;;;;4.78;1.75;;;;;;;;;;5028534;28;20021;-81
2022/02/09 15:35:33;;;;;;;5.18;1.70;;;;;;;;;;5027289;28;20074;-81
2022/02/09 15:57:28;;;;;;;5.63;2.70;;;;;;;;;;5045586;28;20041;-80
2022/02/09 16:05:37;;;;;;;4.22;1.80;;;;;;;;;;5033308;28;20561;-81
2022/02/09 16:10:50;;;;;;;7.88;2.80;;;;;;;;;;5023870;28;20026;-81
2022/02/09 16:24:29;;;;;;;5.10;1.95;;;;;;;;;;5024641;28;20021;-80
2022/02/09 16:38:15;;;;;;;5.38;2.50;;;;;;;;;;4936632;28;20047;-81
2022/02/09 16:46:19;;;;;;;4.03;1.95;;;;;;;;;;5044987;28;20035;-81
2022/02/09 16:49:33;;;;;;;5.45;2.17;;;;;;;;;;5045767;28;20033;-81
2022/02/09 16:52:23;;;;;;;5.45;2.17;;;;;;;;;;5033933;28;20041;-81
2022/02/09 16:54:46;;;;;;;4.57;2.20;;;;;;;;;;5035359;28;20032;-80
2022/02/09 17:19:02;;;;;;;5.75;2.50;;;;;;;;;;5056586;28;20029;-81
2022/02/09 17:21:28;;;;;;;6.40;3.20;;;;;;;;;;5039432;28;20025;-80
2022/02/09 17:23:57;;;;;;;6.20;3.30;;;;;;;;;;5027485;28;20026;-81
2022/02/09 17:26:24;;;;;;;6.40;3.47;;;;;;;;;;5045363;28;20018;-80
2022/02/09 17:29:02;;;;;;;5.13;3.05;;;;;;;;;;5020184;28;20021;-80
2022/02/09 17:34:30;;;;;;;6.35;2.67;;;;;;;;;;5045680;28;20033;-80
2022/02/09 17:58:19;;;;;;;6.38;3.15;;;;;;;;;;5044291;28;20638;-81
2022/02/09 18:00:50;;;;;;;8.13;3.53;;;;;;;;;;5044862;28;20099;-81
2022/02/09 18:03:16;;;;;;;5.65;3.05;;;;;;;;;;5028731;28;20025;-81
2022/02/09 18:05:51;;;;;;;5.05;2.53;;;;;;;;;;5063668;28;20075;-81
2022/02/09 18:08:30;;;;;;;5.32;3.15;;;;;;;;;;5060784;28;20110;-81
2022/02/09 18:11:09;;;;;;;7.28;3.30;;;;;;;;;;5026246;28;20029;-81
2022/02/09 18:43:26;;;;;;;8.23;4.60;;;;;;;;;;5045144;28;20064;-81
2022/02/09 19:07:29;;;;;;;9.55;4.88;;;;;;;;;;5007324;28;20053;-82
2022/02/09 19:26:11;;;;;;;6.38;3.90;;;;;;;;;;5002776;28;20294;-81
2022/02/09 19:31:49;;;;;;;6.25;3.83;;;;;;;;;;5005505;28;20117;-82
2022/02/09 19:47:58;;;;;;;6.65;3.78;;;;;;;;;;5028433;28;20028;-81
2022/02/09 19:50:44;;;;;;;7.93;4.53;;;;;;;;;;5018772;28;20030;-81
2022/02/09 19:56:06;;;;;;;7.07;4.30;;;;;;;;;;5027414;28;20045;-82
2022/02/09 19:58:46;;;;;;;7.93;4.78;;;;;;;;;;5010187;28;20076;-81
2022/02/09 20:01:17;;;;;;;7.18;4.43;;;;;;;;;;5010171;28;20022;-81
2022/02/09 20:03:43;;;;;;;7.43;4.47;;;;;;;;;;5010077;28;20056;-81
2022/02/09 20:06:10;;;;;;;8.18;4.90;;;;;;;;;;5010653;28;20060;-82
2022/02/09 20:08:37;;;;;;;8.70;4.80;;;;;;;;;;5010089;28;20022;-82
2022/02/09 20:11:04;;;;;;;8.45;5.07;;;;;;;;;;5027495;28;20375;-81
2022/02/09 20:13:32;;;;;;;9.43;6.13;;;;;;;;;;5010316;28;20038;-81
2022/02/09 20:15:59;;;;;;;8.57;5.70;;;;;;;;;;5009729;28;20029;-81
2022/02/09 20:18:26;;;;;;;8.98;6.22;;;;;;;;;;5009985;28;20053;-82
2022/02/09 20:20:55;;;;;;;10.75;7.15;;;;;;;;;;5009321;28;20562;-81
2022/02/09 20:23:22;;;;;;;10.77;6.45;;;;;;;;;;5009480;28;20025;-82
2022/02/09 20:25:48;;;;;;;12.52;6.75;;;;;;;;;;5008740;28;20545;-81
2022/02/09 20:28:22;;;;;;;9.95;6.18;;;;;;;;;;5009046;28;20034;-81
2022/02/09 20:30:56;;;;;;;9.43;6.50;;;;;;;;;;5027064;28;20504;-81
2022/02/09 20:33:30;;;;;;;9.65;6.07;;;;;;;;;;5008972;28;20046;-81
2022/02/09 20:35:57;;;;;;;11.95;7.55;;;;;;;;;;5026607;28;20018;-82
2022/02/09 20:38:26;;;;;;;10.82;7.20;;;;;;;;;;5026175;28;20030;-82
2022/02/09 20:40:56;;;;;;;10.88;6.70;;;;;;;;;;5008654;28;20026;-82
2022/02/09 20:43:24;;;;;;;9.32;6.07;;;;;;;;;;5014148;28;20049;-82
2022/02/09 20:45:58;;;;;;;9.20;6.53;;;;;;;;;;5046775;28;20021;-80
2022/02/09 20:48:26;;;;;;;12.18;6.68;;;;;;;;;;5031582;28;20076;-81
2022/02/09 20:50:57;;;;;;;10.15;6.78;;;;;;;;;;5008024;28;20032;-81
2022/02/09 20:53:23;;;;;;;10.35;6.50;;;;;;;;;;5024677;28;20029;-80
2022/02/09 20:55:50;;;;;;;10.45;6.43;;;;;;;;;;5045217;28;20029;-81
2022/02/09 20:58:17;;;;;;;12.23;6.28;;;;;;;;;;5014504;28;20117;-82
2022/02/09 21:06:07;;;;;;;9.40;6.80;;;;;;;;;;5045402;28;20033;-81
2022/02/09 21:08:47;;;;;;;10.75;7.75;;;;;;;;;;5017042;28;20089;-81
2022/02/09 21:11:45;;;;;;;11.68;7.35;;;;;;;;;;5029573;28;20062;-81
2022/02/09 21:14:47;;;;;;;10.57;6.45;;;;;;;;;;5045061;28;20026;-82
2022/02/09 21:25:32;;;;;;;10.27;6.75;;;;;;;;;;5045621;28;20097;-82
2022/02/09 21:54:57;;;;;;;9.77;7.22;;;;;;;;;;5045963;28;20030;-81
2022/02/09 21:57:41;;;;;;;;;;;;;;;;;;5015262;28;20036;-81
2022/02/09 22:54:28;;;;;;;9.02;6.75;;;;;;;;;;5048283;28;20129;-82
2022/02/09 22:54:29;;;;;;;10.82;6.68;;;;;;;;;;5048675;28;20029;-82
2022/02/09 22:56:55;;;;;;;10.82;7.05;;;;;;;;;;5030620;28;20034;-81
2022/02/09 22:59:30;;;;;;;10.98;7.10;;;;;;;;;;5030368;28;20040;-82
2022/02/09 23:02:02;;;;;;;10.90;7.15;;;;;;;;;;5030237;28;20105;-81
2022/02/09 23:04:40;;;;;;;10.70;6.37;;;;;;;;;;5030866;28;20418;-81
2022/02/09 23:07:21;;;;;;;9.35;5.80;;;;;;;;;;5028017;28;20269;-81
2022/02/09 23:10:01;;;;;;;11.30;7.15;;;;;;;;;;5011103;28;20029;-80
2022/02/09 23:12:43;;;;;;;11.63;6.88;;;;;;;;;;5027983;28;20038;-81
2022/02/09 23:15:24;;;;;;;11.45;6.55;;;;;;;;;;5033897;28;20060;-81
2022/02/09 23:26:26;;;;;;;10.05;6.78;;;;;;;;;;5048719;28;20444;-80
